Time;durP1;ratioP1;P1;durP2;ratioP2;P2;SDS_P1;SDS_P2;PMS_P1;PMS_P2;Temp;Humidity;BMP_temperature;BMP_pressure;BME280_temperature;BME280_humidity;BME280_pressure;Samples;Min_cycle;Max_cycle;Signal;HPM_P1;HPM_P2
2021/05/15 00:02:21;;;;;;;7.05;6.05;;;14.70;59.10;;;;;;5028311;28;20124;-82
2021/05/15 00:04:47;;;;;;;6.40;5.80;;;14.70;59.20;;;;;;5044815;28;20032;-81
2021/05/15 00:07:13;;;;;;;6.65;5.95;;;14.70;59.20;;;;;;5048639;28;20033;-80
2021/05/15 00:09:39;;;;;;;8.63;6.18;;;14.60;59.20;;;;;;5030496;28;20091;-80
2021/05/15 00:12:06;;;;;;;6.60;6.00;;;14.60;59.20;;;;;;5030748;28;20847;-80
2021/05/15 00:14:32;;;;;;;6.65;6.03;;;14.60;59.30;;;;;;5047692;28;20032;-81
2021/05/15 00:16:59;;;;;;;7.80;6.35;;;14.60;59.40;;;;;;5047935;28;20036;-84
2021/05/15 00:19:24;;;;;;;7.00;6.28;;;14.50;59.20;;;;;;5047553;28;20029;-82
2021/05/15 00:21:51;;;;;;;7.07;6.38;;;14.50;59.30;;;;;;5029988;28;20048;-80
2021/05/15 00:24:17;;;;;;;6.82;6.20;;;14.50;59.30;;;;;;5047764;28;20033;-81
2021/05/15 00:26:43;;;;;;;8.02;6.65;;;14.50;59.40;;;;;;5047617;28;20060;-82
2021/05/15 00:29:09;;;;;;;8.25;7.22;;;14.40;59.30;;;;;;5047762;28;20102;-82
2021/05/15 00:31:36;;;;;;;8.13;7.10;;;14.40;59.30;;;;;;5048145;28;20036;-81
2021/05/15 00:34:02;;;;;;;8.70;7.43;;;14.40;59.30;;;;;;5047386;28;20063;-81
2021/05/15 00:36:28;;;;;;;9.68;7.72;;;14.40;59.30;;;;;;5048625;28;20120;-81
2021/05/15 00:38:54;;;;;;;7.53;6.68;;;14.40;59.40;;;;;;5048473;28;20123;-81
2021/05/15 00:41:20;;;;;;;7.88;7.22;;;14.40;59.50;;;;;;5047892;28;20314;-81
2021/05/15 00:43:59;;;;;;;8.63;7.82;;;14.40;59.50;;;;;;5030705;28;20025;-81
2021/05/15 00:46:28;;;;;;;8.57;7.78;;;14.30;59.40;;;;;;5029978;28;20048;-81
2021/05/15 00:48:54;;;;;;;9.93;8.00;;;14.30;59.50;;;;;;5048476;28;20029;-83
2021/05/15 00:51:20;;;;;;;8.30;7.70;;;14.30;59.50;;;;;;5048492;28;20167;-81
2021/05/15 00:53:47;;;;;;;9.35;8.10;;;14.30;59.50;;;;;;5039932;28;20030;-80
2021/05/15 00:56:13;;;;;;;8.90;7.97;;;14.30;59.60;;;;;;5028260;28;20036;-81
2021/05/15 00:58:40;;;;;;;9.57;8.68;;;14.30;59.60;;;;;;5033461;28;20032;-82
2021/05/15 01:01:06;;;;;;;9.32;8.30;;;14.20;59.50;;;;;;5047311;28;20041;-80
2021/05/15 01:03:33;;;;;;;11.23;8.63;;;14.20;59.50;;;;;;5048153;28;20119;-82
2021/05/15 01:06:05;;;;;;;10.25;9.27;;;14.20;59.50;;;;;;5048157;28;20072;-81
2021/05/15 01:08:31;;;;;;;10.48;9.35;;;14.20;59.70;;;;;;5047855;28;20547;-79
2021/05/15 01:10:57;;;;;;;10.00;9.00;;;14.20;59.70;;;;;;5030362;28;20036;-80
2021/05/15 01:13:30;;;;;;;10.25;8.95;;;14.10;59.50;;;;;;5046459;28;20036;-80
2021/05/15 01:15:57;;;;;;;12.57;9.13;;;14.10;59.60;;;;;;5029367;28;20037;-81
2021/05/15 01:18:25;;;;;;;11.38;9.77;;;14.10;59.60;;;;;;5047187;28;20376;-80
2021/05/15 01:20:51;;;;;;;9.95;9.05;;;14.10;59.60;;;;;;5029319;28;20067;-79
2021/05/15 01:23:17;;;;;;;12.45;9.70;;;14.00;59.50;;;;;;5029201;28;20033;-81
2021/05/15 01:25:43;;;;;;;10.60;9.60;;;14.10;59.80;;;;;;5047889;28;20040;-82
2021/05/15 01:28:09;;;;;;;11.65;8.68;;;14.00;59.60;;;;;;5047118;28;20029;-81
2021/05/15 01:30:35;;;;;;;11.25;10.05;;;14.00;59.70;;;;;;5025110;28;20509;-79
2021/05/15 01:33:01;;;;;;;10.18;9.23;;;14.00;59.80;;;;;;5030619;28;20115;-81
2021/05/15 01:35:27;;;;;;;12.88;9.73;;;14.00;59.80;;;;;;5048607;28;20059;-79
2021/05/15 01:37:57;;;;;;;10.65;9.68;;;14.00;59.90;;;;;;5030164;28;20037;-79
2021/05/15 01:40:23;;;;;;;10.90;9.90;;;14.00;60.00;;;;;;5052019;28;20484;-80
2021/05/15 01:42:50;;;;;;;10.90;9.90;;;14.00;60.00;;;;;;5053218;28;20032;-84
2021/05/15 01:45:16;;;;;;;10.32;9.32;;;14.00;60.00;;;;;;5034486;28;20083;-79
2021/05/15 01:47:41;;;;;;;10.52;9.43;;;13.90;59.80;;;;;;5047832;28;20053;-79
2021/05/15 01:50:12;;;;;;;11.52;10.20;;;13.90;59.90;;;;;;5041201;28;20041;-79
2021/05/15 01:52:38;;;;;;;10.88;9.77;;;13.90;60.00;;;;;;5055215;28;20025;-82
2021/05/15 01:55:12;;;;;;;11.20;10.07;;;13.90;60.00;;;;;;5056302;28;20025;-84
2021/05/15 01:57:38;;;;;;;10.20;9.30;;;13.90;60.10;;;;;;5056496;28;20037;-84
2021/05/15 02:00:05;;;;;;;10.95;9.85;;;13.90;60.10;;;;;;5056636;28;20106;-83
2021/05/15 02:02:38;;;;;;;11.50;10.40;;;13.90;60.10;;;;;;5039717;28;20275;-86
2021/05/15 02:05:04;;;;;;;11.50;10.27;;;13.90;60.10;;;;;;5056002;28;20024;-82
2021/05/15 02:07:30;;;;;;;11.25;10.25;;;13.80;60.00;;;;;;5055923;28;20067;-82
2021/05/15 02:09:56;;;;;;;12.30;11.00;;;13.90;60.20;;;;;;5055182;28;20029;-82
2021/05/15 02:12:22;;;;;;;11.35;10.25;;;13.80;60.10;;;;;;5037902;28;20060;-82
2021/05/15 02:14:48;;;;;;;10.80;9.90;;;13.80;60.10;;;;;;5055636;28;20068;-83
2021/05/15 02:17:14;;;;;;;11.63;10.50;;;13.80;60.20;;;;;;5054664;28;20033;-81
2021/05/15 02:19:40;;;;;;;11.70;10.60;;;13.80;60.20;;;;;;5054852;28;20044;-82
2021/05/15 02:22:06;;;;;;;12.80;11.48;;;13.80;60.30;;;;;;5036409;28;20082;-82
2021/05/15 02:24:32;;;;;;;13.85;12.55;;;13.80;60.30;;;;;;5036112;28;20426;-80
2021/05/15 02:26:58;;;;;;;11.88;10.85;;;13.70;60.20;;;;;;5036394;28;20029;-80
2021/05/15 02:29:24;;;;;;;12.95;11.27;;;13.70;60.20;;;;;;5055205;28;20096;-79
2021/05/15 02:31:50;;;;;;;11.95;10.85;;;13.70;60.20;;;;;;5054678;28;20115;-81
2021/05/15 02:34:16;;;;;;;11.88;10.52;;;13.70;60.30;;;;;;5054675;28;20550;-83
2021/05/15 02:36:42;;;;;;;12.90;11.80;;;13.70;60.30;;;;;;5054836;28;20115;-81
2021/05/15 02:39:08;;;;;;;12.52;11.40;;;13.70;60.40;;;;;;5036957;28;20025;-81
2021/05/15 02:41:34;;;;;;;13.05;11.85;;;13.60;60.20;;;;;;5054596;28;20388;-80
2021/05/15 02:44:00;;;;;;;14.15;11.57;;;13.60;60.20;;;;;;5054055;28;20476;-80
2021/05/15 02:46:25;;;;;;;13.43;12.18;;;13.60;60.20;;;;;;5036088;28;20111;-80
2021/05/15 02:48:51;;;;;;;12.20;11.07;;;13.60;60.30;;;;;;5054176;28;20045;-83
2021/05/15 02:51:17;;;;;;;12.93;11.73;;;13.60;60.30;;;;;;5035791;28;20172;-79
2021/05/15 02:53:43;;;;;;;12.57;11.30;;;13.50;60.20;;;;;;5035528;28;20031;-80
2021/05/15 02:56:09;;;;;;;14.00;12.07;;;13.50;60.20;;;;;;5035871;28;20029;-80
2021/05/15 02:58:35;;;;;;;12.43;11.43;;;13.50;60.30;;;;;;5035946;28;20029;-79
2021/05/15 03:01:01;;;;;;;13.35;11.88;;;13.50;60.40;;;;;;5036389;28;20146;-79
2021/05/15 03:03:27;;;;;;;13.65;11.98;;;13.50;60.40;;;;;;5035804;28;20175;-79
2021/05/15 03:05:53;;;;;;;12.15;11.02;;;13.40;60.20;;;;;;5053383;28;20131;-79
2021/05/15 03:08:19;;;;;;;14.23;11.93;;;13.40;60.30;;;;;;5053692;28;20119;-82
2021/05/15 03:10:45;;;;;;;13.45;12.23;;;13.40;60.30;;;;;;5054119;28;20192;-82
2021/05/15 03:13:12;;;;;;;12.93;11.63;;;13.40;60.40;;;;;;5054540;28;20385;-80
2021/05/15 03:15:37;;;;;;;13.38;12.18;;;13.40;60.40;;;;;;5053601;28;20057;-80
2021/05/15 03:18:04;;;;;;;13.73;12.25;;;13.40;60.50;;;;;;5053873;28;20051;-81
2021/05/15 03:20:30;;;;;;;13.13;11.90;;;13.40;60.50;;;;;;5053295;28;20128;-80
2021/05/15 03:22:56;;;;;;;13.18;11.90;;;13.40;60.50;;;;;;5035303;28;20032;-80
2021/05/15 03:25:22;;;;;;;12.80;11.60;;;13.40;60.50;;;;;;5035234;28;20033;-80
2021/05/15 03:27:49;;;;;;;12.32;11.20;;;13.40;60.60;;;;;;5035205;28;20036;-80
2021/05/15 03:30:16;;;;;;;12.30;11.07;;;13.40;60.60;;;;;;5035110;28;20024;-80
2021/05/15 03:32:42;;;;;;;12.73;11.57;;;13.30;60.40;;;;;;5034950;28;20033;-81
2021/05/15 03:35:13;;;;;;;13.02;11.60;;;13.30;60.40;;;;;;5035332;28;20027;-81
2021/05/15 03:37:40;;;;;;;12.30;11.10;;;13.30;60.50;;;;;;5035772;28;20059;-81
2021/05/15 03:40:08;;;;;;;12.95;11.82;;;13.30;60.50;;;;;;5035250;28;20043;-80
2021/05/15 03:42:34;;;;;;;12.43;11.32;;;13.20;60.40;;;;;;5034833;28;20054;-80
2021/05/15 03:45:01;;;;;;;12.55;11.32;;;13.30;60.50;;;;;;5018300;28;20403;-80
2021/05/15 03:47:27;;;;;;;12.32;11.13;;;13.20;60.40;;;;;;5034758;28;20215;-81
2021/05/15 03:49:53;;;;;;;12.02;10.93;;;13.20;60.40;;;;;;5035072;28;20028;-82
2021/05/15 03:52:19;;;;;;;13.02;11.82;;;13.20;60.50;;;;;;5035271;28;20029;-80
2021/05/15 03:54:45;;;;;;;12.75;11.50;;;13.20;60.50;;;;;;5034422;28;20159;-79
2021/05/15 03:57:11;;;;;;;13.18;11.82;;;13.20;60.50;;;;;;5034505;28;20123;-82
2021/05/15 03:59:37;;;;;;;12.70;11.45;;;13.10;60.40;;;;;;5052563;28;20025;-80
2021/05/15 04:02:03;;;;;;;13.73;11.85;;;13.10;60.50;;;;;;5051836;28;20040;-81
2021/05/15 04:04:29;;;;;;;12.18;11.07;;;13.10;60.50;;;;;;5034564;28;20040;-81
2021/05/15 04:06:55;;;;;;;12.73;11.43;;;13.10;60.50;;;;;;5034841;28;20061;-80
2021/05/15 04:09:21;;;;;;;12.15;10.85;;;13.10;60.60;;;;;;5034362;28;20100;-81
2021/05/15 04:11:47;;;;;;;11.90;10.75;;;13.10;60.60;;;;;;5052177;28;20035;-81
2021/05/15 04:19:11;;;;;;;11.73;10.63;;;13.10;60.70;;;;;;5034450;28;20404;-80
2021/05/15 04:21:37;;;;;;;12.30;11.23;;;13.00;60.60;;;;;;5051997;28;20400;-79
2021/05/15 04:24:04;;;;;;;13.18;11.88;;;13.00;60.60;;;;;;5051874;28;20506;-82
2021/05/15 04:26:30;;;;;;;12.38;11.18;;;13.00;60.60;;;;;;5052132;28;20044;-82
2021/05/15 04:28:56;;;;;;;11.43;10.52;;;13.00;60.60;;;;;;5052311;28;20131;-81
2021/05/15 04:31:22;;;;;;;11.40;10.30;;;13.00;60.70;;;;;;5052446;28;20502;-81
2021/05/15 04:33:48;;;;;;;11.70;10.65;;;13.00;60.70;;;;;;5051741;28;20060;-81
2021/05/15 04:36:14;;;;;;;11.85;10.77;;;13.00;60.70;;;;;;5052741;28;20025;-80
2021/05/15 04:38:40;;;;;;;11.52;10.43;;;13.00;60.70;;;;;;5052394;28;20033;-80
2021/05/15 04:41:06;;;;;;;12.05;10.95;;;13.00;60.70;;;;;;5034738;28;20067;-80
2021/05/15 04:43:32;;;;;;;11.77;10.73;;;13.00;60.70;;;;;;5052564;28;20036;-79
2021/05/15 04:45:58;;;;;;;12.68;11.40;;;13.00;60.80;;;;;;5034779;28;20025;-80
2021/05/15 04:48:24;;;;;;;11.85;10.77;;;13.00;60.80;;;;;;5028244;28;20518;-82
2021/05/15 04:50:50;;;;;;;12.45;11.27;;;13.00;60.80;;;;;;5028884;28;20033;-81
2021/05/15 04:53:16;;;;;;;11.73;10.63;;;13.00;60.80;;;;;;5014968;28;20052;-81
2021/05/15 04:55:42;;;;;;;11.70;10.70;;;12.90;60.60;;;;;;5014760;28;20131;-82
2021/05/15 04:58:08;;;;;;;11.10;10.10;;;13.00;60.80;;;;;;5031504;28;20082;-81
2021/05/15 05:00:34;;;;;;;11.80;10.75;;;12.90;60.70;;;;;;5031097;28;20032;-82
2021/05/15 05:03:00;;;;;;;13.85;11.32;;;13.00;60.90;;;;;;5029832;28;20348;-78
2021/05/15 05:05:26;;;;;;;10.93;10.02;;;13.00;61.00;;;;;;5047565;28;20043;-80
2021/05/15 05:07:52;;;;;;;12.18;11.07;;;12.90;60.80;;;;;;5047718;28;20530;-83
2021/05/15 05:10:18;;;;;;;11.73;10.63;;;12.90;60.80;;;;;;5012993;28;20033;-82
2021/05/15 05:12:44;;;;;;;11.77;10.60;;;12.90;60.80;;;;;;5029796;28;20484;-81
2021/05/15 05:15:10;;;;;;;12.88;11.57;;;13.00;61.00;;;;;;5033975;28;20131;-81
2021/05/15 05:17:36;;;;;;;12.23;10.90;;;13.00;61.00;;;;;;5018213;28;20541;-81
2021/05/15 05:20:03;;;;;;;10.77;9.77;;;12.90;60.90;;;;;;5049369;28;20029;-82
2021/05/15 05:22:29;;;;;;;12.05;10.95;;;12.90;60.90;;;;;;5029923;28;20036;-83
2021/05/15 05:24:55;;;;;;;12.13;10.93;;;13.00;61.10;;;;;;5014182;28;20037;-80
2021/05/15 05:27:22;;;;;;;10.35;9.45;;;13.00;61.10;;;;;;5014439;28;20025;-80
2021/05/15 05:29:48;;;;;;;12.23;10.98;;;13.00;61.10;;;;;;5032419;28;20048;-82
2021/05/15 05:32:14;;;;;;;12.13;11.02;;;13.00;61.10;;;;;;5013636;28;20052;-80
2021/05/15 05:34:43;;;;;;;11.68;10.57;;;13.00;61.10;;;;;;5039708;28;20031;-82
2021/05/15 05:37:09;;;;;;;12.57;11.48;;;13.00;61.10;;;;;;5033460;28;20039;-84
2021/05/15 05:39:37;;;;;;;12.95;10.98;;;12.90;60.90;;;;;;5034200;28;20025;-81
2021/05/15 05:42:03;;;;;;;11.70;10.70;;;13.00;61.10;;;;;;5018019;28;20587;-81
2021/05/15 05:44:29;;;;;;;11.95;10.70;;;12.90;60.90;;;;;;5033813;28;20478;-81
2021/05/15 05:46:55;;;;;;;10.60;9.63;;;12.90;60.90;;;;;;5033690;28;20098;-78
2021/05/15 05:49:21;;;;;;;11.52;10.43;;;13.00;61.10;;;;;;5051208;28;20459;-80
2021/05/15 05:51:47;;;;;;;10.27;9.38;;;12.90;60.90;;;;;;5051211;28;20025;-79
2021/05/15 05:54:13;;;;;;;11.65;10.48;;;13.00;61.20;;;;;;5038446;28;20484;-79
2021/05/15 05:56:39;;;;;;;11.45;10.45;;;13.00;61.20;;;;;;5013034;28;20029;-79
2021/05/15 05:59:05;;;;;;;12.52;9.70;;;12.90;61.00;;;;;;5029174;28;20038;-79
2021/05/15 06:01:31;;;;;;;11.48;10.02;;;13.00;61.30;;;;;;5013745;28;20038;-80
2021/05/15 06:03:57;;;;;;;10.55;9.65;;;12.90;61.10;;;;;;5030455;28;20156;-79
2021/05/15 06:06:23;;;;;;;10.10;9.15;;;13.00;61.30;;;;;;5030233;28;20116;-80
2021/05/15 06:08:49;;;;;;;10.00;9.02;;;13.00;61.30;;;;;;5029281;28;20029;-81
2021/05/15 06:11:15;;;;;;;9.88;8.82;;;13.00;61.40;;;;;;5030841;28;20480;-79
2021/05/15 06:13:41;;;;;;;10.68;9.57;;;13.00;61.30;;;;;;5012338;28;20044;-80
2021/05/15 06:16:07;;;;;;;10.07;9.07;;;13.00;61.20;;;;;;5029356;28;20034;-79
2021/05/15 06:18:33;;;;;;;10.05;8.98;;;13.10;61.40;;;;;;5039530;28;20036;-79
2021/05/15 06:20:59;;;;;;;9.88;8.98;;;13.10;61.40;;;;;;5031170;28;20408;-79
2021/05/15 06:23:25;;;;;;;11.02;8.73;;;13.10;61.30;;;;;;5027753;28;20103;-80
2021/05/15 06:25:52;;;;;;;10.48;9.18;;;13.10;61.30;;;;;;5047316;28;20033;-79
2021/05/15 06:28:19;;;;;;;9.02;8.13;;;13.10;61.30;;;;;;5049848;28;20484;-78
2021/05/15 06:30:45;;;;;;;9.23;8.35;;;13.20;61.40;;;;;;5050392;28;20127;-80
2021/05/15 06:33:11;;;;;;;9.00;8.10;;;13.10;61.20;;;;;;5022976;28;20036;-80
2021/05/15 06:35:37;;;;;;;11.32;8.15;;;13.20;61.40;;;;;;5028141;28;20185;-80
2021/05/15 06:38:05;;;;;;;9.85;8.90;;;13.20;61.40;;;;;;5017202;28;20025;-79
2021/05/15 06:40:32;;;;;;;9.55;7.80;;;13.20;61.40;;;;;;5030474;28;20045;-79
2021/05/15 06:42:58;;;;;;;8.88;8.02;;;13.20;61.40;;;;;;5031262;28;20124;-80
2021/05/15 06:45:24;;;;;;;7.80;7.10;;;13.20;61.40;;;;;;5048959;28;20075;-81
2021/05/15 06:47:53;;;;;;;8.15;7.43;;;13.20;61.60;;;;;;5049983;28;20047;-80
2021/05/15 06:50:19;;;;;;;7.72;6.93;;;13.20;61.70;;;;;;5033609;28;20028;-82
2021/05/15 06:52:45;;;;;;;7.72;7.03;;;13.30;61.90;;;;;;5032505;28;20381;-83
2021/05/15 06:55:11;;;;;;;7.68;6.68;;;13.20;61.90;;;;;;5049217;28;20114;-82
2021/05/15 06:57:37;;;;;;;6.78;6.10;;;13.30;62.10;;;;;;5049383;28;20039;-82
2021/05/15 07:00:06;;;;;;;7.88;5.57;;;13.30;62.20;;;;;;5049526;28;20403;-85
2021/05/15 07:02:32;;;;;;;8.15;5.43;;;13.30;62.40;;;;;;5027109;28;20046;-82
2021/05/15 07:04:59;;;;;;;7.45;5.85;;;13.30;62.80;;;;;;5029049;28;20049;-82
2021/05/15 07:07:25;;;;;;;7.38;5.20;;;13.40;63.60;;;;;;5028387;28;20055;-84
2021/05/15 07:09:51;;;;;;;7.78;4.95;;;13.40;64.00;;;;;;5049426;28;20384;-80
2021/05/15 07:12:17;;;;;;;6.75;5.28;;;13.50;64.50;;;;;;5014358;28;20426;-82
2021/05/15 07:14:44;;;;;;;5.28;4.78;;;13.60;65.00;;;;;;5049077;28;20051;-84
2021/05/15 07:17:11;;;;;;;10.05;5.38;;;13.70;65.50;;;;;;5030637;28;20187;-83
2021/05/15 07:19:37;;;;;;;6.40;4.72;;;13.80;65.80;;;;;;5014548;28;20542;-81
2021/05/15 07:22:03;;;;;;;7.50;4.90;;;13.90;66.20;;;;;;5013352;28;20069;-82
2021/05/15 07:24:29;;;;;;;5.85;4.93;;;14.00;66.50;;;;;;5047150;28;20021;-82
2021/05/15 07:26:55;;;;;;;4.68;4.15;;;14.00;66.60;;;;;;5031047;28;20029;-83
2021/05/15 07:29:21;;;;;;;4.90;4.40;;;14.10;66.90;;;;;;5048222;28;20112;-82
2021/05/15 07:31:47;;;;;;;5.15;4.50;;;14.10;67.00;;;;;;5031417;28;20029;-82
2021/05/15 07:34:13;;;;;;;7.00;4.70;;;14.20;67.20;;;;;;5031213;28;20029;-79
2021/05/15 07:36:39;;;;;;;5.80;5.13;;;14.20;67.20;;;;;;5029732;28;20461;-79
2021/05/15 07:39:06;;;;;;;5.68;4.75;;;14.20;67.30;;;;;;5010189;28;20033;-79
2021/05/15 07:41:32;;;;;;;6.15;4.57;;;14.30;67.50;;;;;;5026836;28;20056;-78
2021/05/15 07:43:58;;;;;;;6.22;4.05;;;14.30;67.50;;;;;;5044064;28;20449;-80
2021/05/15 07:46:24;;;;;;;7.85;4.68;;;14.30;67.40;;;;;;5031431;28;20096;-79
2021/05/15 07:48:50;;;;;;;4.63;4.13;;;14.30;67.40;;;;;;5014158;28;20029;-79
2021/05/15 07:51:21;;;;;;;6.38;4.40;;;14.30;67.30;;;;;;5015182;28;20410;-78
2021/05/15 07:53:51;;;;;;;4.25;3.75;;;14.30;67.30;;;;;;5048307;28;20091;-79
2021/05/15 07:56:17;;;;;;;4.78;3.90;;;14.30;67.30;;;;;;5049650;28;20091;-78
2021/05/15 07:58:44;;;;;;;5.55;4.10;;;14.30;67.20;;;;;;5047798;28;20041;-80
2021/05/15 08:01:10;;;;;;;4.35;3.78;;;14.40;67.30;;;;;;5048901;28;20124;-81
2021/05/15 08:03:36;;;;;;;5.28;4.00;;;14.40;67.20;;;;;;5048115;28;20029;-81
2021/05/15 08:06:02;;;;;;;4.80;3.58;;;14.40;67.20;;;;;;5030729;28;20553;-84
2021/05/15 08:08:28;;;;;;;5.70;3.90;;;14.40;67.10;;;;;;5013303;28;20172;-80
2021/05/15 08:10:54;;;;;;;3.35;3.15;;;14.40;67.00;;;;;;5046215;28;20032;-79
2021/05/15 08:13:23;;;;;;;4.57;3.53;;;14.40;67.00;;;;;;5013340;28;20116;-83
2021/05/15 08:15:50;;;;;;;4.35;3.92;;;14.40;66.90;;;;;;5048728;28;20155;-82
2021/05/15 08:18:16;;;;;;;5.07;3.28;;;14.40;66.80;;;;;;5022376;28;20030;-80
2021/05/15 08:20:42;;;;;;;4.68;3.13;;;14.40;66.80;;;;;;5025581;28;20076;-79
2021/05/15 08:23:08;;;;;;;4.13;3.10;;;14.40;66.70;;;;;;5026883;28;20022;-81
2021/05/15 08:25:34;;;;;;;5.22;3.45;;;14.50;66.70;;;;;;5009488;28;20416;-80
2021/05/15 08:28:05;;;;;;;3.80;3.00;;;14.50;66.60;;;;;;5009149;28;20044;-80
2021/05/15 08:30:32;;;;;;;5.43;3.50;;;14.50;66.60;;;;;;5027473;28;20037;-78
2021/05/15 08:32:58;;;;;;;4.57;3.42;;;14.50;66.40;;;;;;5009495;28;20361;-79
2021/05/15 08:35:25;;;;;;;3.85;2.90;;;14.60;66.50;;;;;;5009604;28;20138;-80
2021/05/15 08:37:53;;;;;;;3.15;2.72;;;14.60;66.40;;;;;;5026723;28;20104;-80
2021/05/15 08:40:28;;;;;;;3.67;2.90;;;14.60;66.30;;;;;;5009487;28;20378;-80
2021/05/15 08:42:55;;;;;;;3.83;3.22;;;14.60;66.20;;;;;;5026727;28;20064;-81
2021/05/15 08:45:24;;;;;;;3.20;2.50;;;14.60;66.10;;;;;;5009166;28;20444;-80
2021/05/15 08:47:52;;;;;;;3.30;2.55;;;14.60;66.00;;;;;;5026273;28;20133;-80
2021/05/15 08:50:22;;;;;;;3.72;2.70;;;14.60;66.00;;;;;;5008653;28;20025;-79
2021/05/15 08:52:50;;;;;;;2.70;2.30;;;14.70;66.10;;;;;;5008989;28;20034;-79
2021/05/15 08:55:28;;;;;;;2.85;2.47;;;14.70;66.00;;;;;;5008618;28;20025;-79
2021/05/15 08:57:55;;;;;;;2.63;2.25;;;14.80;66.20;;;;;;5026899;28;20037;-79
2021/05/15 09:00:26;;;;;;;3.15;2.53;;;14.90;66.20;;;;;;5026457;28;20029;-80
2021/05/15 09:02:56;;;;;;;2.97;2.60;;;15.00;66.20;;;;;;5008753;28;20041;-83
2021/05/15 09:05:23;;;;;;;2.85;2.58;;;15.10;66.20;;;;;;5009727;28;20512;-81
2021/05/15 09:07:54;;;;;;;2.50;2.30;;;15.30;66.40;;;;;;5026810;28;20029;-84
2021/05/15 09:10:24;;;;;;;2.00;1.90;;;15.50;66.70;;;;;;5009276;28;20068;-81
2021/05/15 09:12:50;;;;;;;2.40;2.20;;;15.70;66.70;;;;;;5025399;28;20112;-81
2021/05/15 09:15:17;;;;;;;2.20;2.00;;;15.90;66.70;;;;;;5009403;28;20032;-79
2021/05/15 09:17:49;;;;;;;3.45;2.20;;;16.10;66.70;;;;;;5026299;28;20033;-80
2021/05/15 09:20:33;;;;;;;2.67;2.05;;;16.30;66.70;;;;;;4992994;28;20034;-78
2021/05/15 09:23:14;;;;;;;3.05;2.38;;;16.40;66.60;;;;;;5015330;28;20036;-78
2021/05/15 09:25:42;;;;;;;3.08;1.90;;;16.50;66.60;;;;;;5012201;28;20055;-78
2021/05/15 09:28:08;;;;;;;3.42;2.30;;;16.60;66.60;;;;;;5012003;28;20518;-79
2021/05/15 09:30:35;;;;;;;4.90;2.30;;;16.70;66.60;;;;;;5028431;28;20033;-80
2021/05/15 09:33:14;;;;;;;2.13;1.90;;;16.80;66.70;;;;;;5046294;28;20178;-79
2021/05/15 09:35:40;;;;;;;4.53;2.20;;;16.90;66.80;;;;;;5012187;28;20281;-79
2021/05/15 09:38:07;;;;;;;3.83;2.38;;;16.90;67.10;;;;;;5029528;28;20642;-80
2021/05/15 09:40:33;;;;;;;3.42;2.03;;;17.00;66.60;;;;;;5028834;28;20365;-79
2021/05/15 09:43:01;;;;;;;3.30;2.10;;;17.20;66.70;;;;;;5011927;28;20551;-78
2021/05/15 09:45:32;;;;;;;3.80;1.95;;;17.30;66.70;;;;;;5028814;28;20428;-78
2021/05/15 09:48:03;;;;;;;4.18;2.17;;;17.40;66.70;;;;;;5028204;28;20079;-80
2021/05/15 09:50:34;;;;;;;3.97;2.50;;;17.60;66.70;;;;;;5046503;28;20036;-79
2021/05/15 09:53:14;;;;;;;3.95;1.95;;;17.80;66.80;;;;;;5046307;28;20370;-79
2021/05/15 09:55:43;;;;;;;4.30;2.35;;;18.10;67.10;;;;;;5012174;28;20116;-80
2021/05/15 09:58:10;;;;;;;4.82;3.78;;;18.40;67.10;;;;;;5046193;28;20401;-79
2021/05/15 10:00:43;;;;;;;5.97;4.03;;;18.70;67.10;;;;;;5048347;28;20032;-80
2021/05/15 10:03:31;;;;;;;5.43;3.20;;;19.00;67.10;;;;;;5032217;28;20032;-80
2021/05/15 10:06:10;;;;;;;5.60;3.10;;;19.40;67.20;;;;;;5032148;28;20021;-81
2021/05/15 10:08:40;;;;;;;5.97;2.90;;;19.70;67.10;;;;;;5032210;28;20455;-81
2021/05/15 10:11:06;;;;;;;5.28;3.47;;;19.90;66.70;;;;;;5031907;28;20571;-80
2021/05/15 10:13:33;;;;;;;4.72;2.92;;;20.10;66.60;;;;;;5032291;28;20035;-81
2021/05/15 10:16:01;;;;;;;3.40;2.55;;;20.20;66.40;;;;;;5032174;28;20087;-81
2021/05/15 10:18:31;;;;;;;5.15;2.90;;;20.30;66.20;;;;;;5041909;28;20029;-80
2021/05/15 10:20:58;;;;;;;9.05;3.00;;;20.30;66.00;;;;;;5011606;28;20167;-80
2021/05/15 10:23:26;;;;;;;3.50;2.17;;;20.30;65.90;;;;;;5031511;28;20021;-80
2021/05/15 10:26:06;;;;;;;4.65;2.70;;;20.30;65.90;;;;;;5031339;28;20128;-80
2021/05/15 10:28:36;;;;;;;5.22;3.20;;;20.30;65.80;;;;;;5015260;28;20671;-81
2021/05/15 10:31:16;;;;;;;6.22;3.00;;;20.50;66.20;;;;;;5031818;28;20029;-79
2021/05/15 10:33:48;;;;;;;6.25;3.15;;;20.60;66.00;;;;;;5031830;28;20036;-84
2021/05/15 10:36:24;;;;;;;7.88;3.28;;;20.80;66.00;;;;;;5014921;28;20140;-80
2021/05/15 10:38:53;;;;;;;7.05;2.83;;;21.00;65.90;;;;;;5014456;28;20025;-80
2021/05/15 10:41:27;;;;;;;4.75;2.38;;;21.10;65.80;;;;;;5014512;28;20040;-81
2021/05/15 10:43:56;;;;;;;4.07;2.10;;;21.20;65.60;;;;;;5031187;28;20036;-81
2021/05/15 10:46:28;;;;;;;6.22;2.67;;;21.30;65.40;;;;;;5014781;28;20120;-81
2021/05/15 10:48:55;;;;;;;9.88;2.97;;;21.30;65.20;;;;;;5014946;28;20033;-80
2021/05/15 10:51:42;;;;;;;4.57;2.65;;;21.50;65.50;;;;;;5031969;28;20036;-81
2021/05/15 10:54:10;;;;;;;8.77;3.20;;;21.60;65.30;;;;;;5030449;28;20056;-78
2021/05/15 10:56:36;;;;;;;6.45;2.85;;;21.70;65.20;;;;;;4981460;28;20041;-79
2021/05/15 10:59:09;;;;;;;5.45;2.70;;;21.80;65.10;;;;;;5030385;28;20025;-78
2021/05/15 11:01:47;;;;;;;8.18;3.65;;;22.00;65.10;;;;;;5014395;28;20044;-78
2021/05/15 11:04:21;;;;;;;7.60;3.22;;;22.10;65.00;;;;;;5027270;28;20056;-78
2021/05/15 11:06:59;;;;;;;7.78;3.22;;;22.10;64.60;;;;;;5030780;28;20033;-78
2021/05/15 11:09:25;;;;;;;7.25;3.20;;;22.00;64.30;;;;;;5015226;28;20021;-79
2021/05/15 11:11:52;;;;;;;7.35;3.35;;;22.10;64.70;;;;;;4993766;28;20057;-78
2021/05/15 11:14:37;;;;;;;7.85;3.50;;;22.20;64.70;;;;;;5027699;28;20065;-79
2021/05/15 11:17:18;;;;;;;9.00;3.65;;;22.40;64.70;;;;;;5013757;28;20029;-78
2021/05/15 11:20:10;;;;;;;7.03;3.70;;;22.60;64.60;;;;;;5014039;28;20039;-80
2021/05/15 11:22:57;;;;;;;7.70;3.92;;;22.80;64.50;;;;;;5029952;28;20071;-77
2021/05/15 11:25:27;;;;;;;7.13;3.70;;;23.00;64.60;;;;;;5013759;28;20477;-79
2021/05/15 11:27:56;;;;;;;7.50;3.75;;;23.00;64.30;;;;;;4997292;28;20419;-78
2021/05/15 11:30:30;;;;;;;7.95;3.55;;;23.10;64.30;;;;;;5013668;28;20021;-78
2021/05/15 11:33:02;;;;;;;8.57;3.88;;;23.20;64.30;;;;;;5029564;28;20106;-77
2021/05/15 11:35:30;;;;;;;6.95;3.80;;;23.40;64.40;;;;;;5014134;28;20040;-77
2021/05/15 11:38:10;;;;;;;8.48;4.50;;;23.60;64.40;;;;;;5013622;28;20029;-77
2021/05/15 11:40:50;;;;;;;7.75;4.35;;;23.80;64.30;;;;;;5030677;28;20075;-77
2021/05/15 11:43:18;;;;;;;8.30;4.30;;;24.00;64.40;;;;;;5013379;28;20549;-77
2021/05/15 11:45:44;;;;;;;9.25;4.07;;;24.10;64.40;;;;;;5047686;28;20085;-77
2021/05/15 11:48:22;;;;;;;7.85;4.05;;;24.20;64.30;;;;;;5010098;28;20144;-78
2021/05/15 11:51:04;;;;;;;7.80;4.13;;;24.40;64.30;;;;;;5026749;28;20045;-78
2021/05/15 11:53:39;;;;;;;6.78;4.13;;;24.50;64.10;;;;;;5004040;28;20033;-78
2021/05/15 11:56:12;;;;;;;6.68;3.97;;;24.70;64.20;;;;;;5013591;28;20092;-80
2021/05/15 11:59:08;;;;;;;8.50;4.47;;;24.80;64.10;;;;;;5009498;28;20107;-80
2021/05/15 12:01:36;;;;;;;9.05;4.50;;;25.00;64.30;;;;;;4998206;28;20096;-79
2021/05/15 12:04:07;;;;;;;8.35;4.60;;;25.10;64.10;;;;;;5013510;28;20025;-77
2021/05/15 12:06:34;;;;;;;6.40;4.07;;;25.10;63.80;;;;;;5030560;28;20037;-77
2021/05/15 12:09:11;;;;;;;9.63;5.25;;;25.20;63.70;;;;;;5013185;28;20450;-77
2021/05/15 12:11:37;;;;;;;7.63;4.60;;;25.30;63.50;;;;;;5013370;28;20134;-76
2021/05/15 12:14:04;;;;;;;8.88;5.72;;;25.40;63.40;;;;;;5012900;28;20128;-77
2021/05/15 12:16:32;;;;;;;6.97;3.97;;;25.50;63.20;;;;;;5013095;28;20068;-77
2021/05/15 12:18:58;;;;;;;9.73;4.70;;;25.60;63.00;;;;;;5012667;28;20495;-76
2021/05/15 12:21:25;;;;;;;7.40;5.03;;;25.70;62.80;;;;;;5028803;28;20045;-77
2021/05/15 12:23:52;;;;;;;6.63;4.30;;;25.80;63.20;;;;;;5008261;28;20049;-77
2021/05/15 12:26:21;;;;;;;9.65;4.97;;;25.90;62.40;;;;;;4992886;28;20316;-76
2021/05/15 12:28:49;;;;;;;8.35;4.93;;;26.10;62.30;;;;;;5015712;28;20033;-77
2021/05/15 12:31:31;;;;;;;8.02;4.88;;;26.20;61.90;;;;;;5042535;28;20366;-77
2021/05/15 12:33:58;;;;;;;17.15;11.52;;;26.30;62.20;;;;;;5022829;28;20523;-77
2021/05/15 12:36:31;;;;;;;12.50;7.60;;;26.40;60.70;;;;;;5012514;28;20028;-78
2021/05/15 12:38:58;;;;;;;12.05;7.45;;;26.50;60.30;;;;;;5009047;28;20024;-80
2021/05/15 12:41:35;;;;;;;9.63;6.10;;;26.60;60.40;;;;;;4993157;28;20049;-79
2021/05/15 12:44:12;;;;;;;12.63;5.88;;;26.80;60.30;;;;;;5009418;28;20021;-78
2021/05/15 12:46:41;;;;;;;8.27;5.53;;;26.90;60.70;;;;;;5009245;28;20053;-80
2021/05/15 12:49:13;;;;;;;8.13;5.68;;;27.10;60.10;;;;;;5005380;28;20017;-79
2021/05/15 12:51:45;;;;;;;8.45;5.18;;;27.20;59.70;;;;;;5028665;28;20133;-80